CheckWX is a tool to help pilots better visualize weather data.  It is not intended as a substitute for an official pre-flight weather briefing.

01:35:51 UTC

48A METAR
Cochran Airport
Cochran, Georgia, USA
Current

21 mins ago

K48A 190115Z AUTO 00000KT 10SM SCT120 24/22 A2996 RMK AO2 T02390220
Observed
Jun-19 @ 01:15 UTC
Visibility
10 SM
Flight Rules
VFR
Cloud Levels
  • Scattered at 12,000' AGL
Temperature
24°C / 75°F
Dewpoint
22°C / 72°F
Humidity
89%
Altimeter
29.96" Hg
Pressure
1014.52 hPa
Previous

41 mins ago

K48A 190055Z AUTO 00000KT 10SM SCT120 24/22 A2996 RMK AO2 LTG DSNT E T02440215
Observed
Jun-19 @ 00:55 UTC
Visibility
10 SM
Flight Rules
VFR
Cloud Levels
  • Scattered at 12,000' AGL
Temperature
24°C / 75°F
Dewpoint
22°C / 72°F
Humidity
89%
Altimeter
29.96" Hg
Pressure
1014.52 hPa
Previous

1 hour ago

K48A 190035Z AUTO 26003KT 10SM CLR 25/22 A2997 RMK AO2 LTG DSNT E T02460219
Observed
Jun-19 @ 00:35 UTC
Wind
  • 260° at 3 KTS
Visibility
10 SM
Flight Rules
VFR
Cloud Levels
  • Clear skies
Temperature
25°C / 77°F
Dewpoint
22°C / 72°F
Humidity
83%
Altimeter
29.97" Hg
Pressure
1014.92 hPa